createdAt,value
2022-09-18T00:01:42.736Z,4.35
2022-09-18T00:04:14.011Z,4.68
2022-09-18T00:06:43.583Z,4.28
2022-09-18T00:09:14.632Z,4.53
2022-09-18T00:11:46.552Z,4.57
2022-09-18T00:14:18.702Z,4.72
2022-09-18T00:16:46.891Z,4.28
2022-09-18T00:19:16.110Z,4.50
2022-09-18T00:21:47.841Z,4.03
2022-09-18T00:24:17.811Z,4.57
2022-09-18T00:26:47.080Z,4.47
2022-09-18T00:29:16.381Z,4.30
2022-09-18T00:31:45.456Z,4.07
2022-09-18T00:34:14.889Z,4.22
2022-09-18T00:36:45.595Z,4.50
2022-09-18T00:39:14.026Z,4.15
2022-09-18T00:41:43.554Z,4.22
2022-09-18T00:44:34.585Z,3.65
2022-09-18T00:47:11.630Z,3.80
2022-09-18T00:49:53.212Z,4.00
2022-09-18T00:52:23.847Z,3.97
2022-09-18T00:54:56.561Z,3.80
2022-09-18T00:57:30.184Z,3.70
2022-09-18T01:00:00.627Z,3.20
2022-09-18T01:02:28.754Z,3.63
2022-09-18T01:04:56.764Z,3.67
2022-09-18T01:07:48.679Z,3.58
2022-09-18T01:10:45.531Z,3.30
2022-09-18T01:13:30.148Z,3.50
2022-09-18T01:16:24.638Z,3.72
2022-09-18T01:19:24.624Z,3.35
2022-09-18T01:22:14.250Z,3.60
2022-09-18T01:24:59.169Z,2.90
2022-09-18T01:27:33.988Z,3.20
2022-09-18T01:30:11.810Z,3.40
2022-09-18T01:33:04.254Z,3.10
2022-09-18T01:38:28.982Z,3.20
2022-09-18T01:41:05.735Z,2.95
2022-09-18T01:43:36.538Z,3.45
2022-09-18T01:46:09.932Z,3.10
2022-09-18T01:48:46.420Z,2.95
2022-09-18T01:52:11.942Z,3.38
2022-09-18T01:54:48.371Z,3.10
2022-09-18T01:57:22.522Z,3.17
2022-09-18T02:00:12.209Z,3.42
2022-09-18T02:03:00.538Z,3.08
2022-09-18T02:05:40.227Z,2.72
2022-09-18T02:08:18.044Z,3.70
2022-09-18T02:11:05.126Z,3.03
2022-09-18T02:13:39.113Z,2.88
2022-09-18T02:16:16.374Z,2.92
2022-09-18T02:18:51.842Z,2.92
2022-09-18T02:21:27.203Z,3.10
2022-09-18T02:24:01.539Z,3.00
2022-09-18T02:26:33.971Z,2.95
2022-09-18T02:29:04.002Z,2.88
2022-09-18T02:31:33.594Z,2.85
2022-09-18T02:34:02.434Z,2.80
2022-09-18T02:37:05.709Z,2.88
2022-09-18T02:39:53.018Z,2.85
2022-09-18T02:42:43.875Z,2.60
2022-09-18T02:45:27.718Z,3.00
2022-09-18T02:48:25.967Z,3.10
2022-09-18T02:51:23.356Z,3.30
2022-09-18T02:54:02.747Z,3.15
2022-09-18T02:56:56.271Z,2.80
2022-09-18T02:59:41.650Z,3.15
2022-09-18T03:02:13.733Z,2.70
2022-09-18T03:04:42.551Z,2.70
2022-09-18T03:07:14.757Z,3.38
2022-09-18T03:09:44.318Z,2.87
2022-09-18T03:12:13.636Z,2.80
2022-09-18T03:14:48.360Z,3.00
2022-09-18T03:17:17.056Z,2.90
2022-09-18T03:19:46.235Z,3.15
2022-09-18T03:22:17.158Z,2.78
2022-09-18T03:24:45.419Z,2.80
2022-09-18T03:27:18.084Z,2.85
2022-09-18T03:32:16.733Z,3.00
2022-09-18T03:34:51.298Z,2.97
2022-09-18T03:37:19.074Z,2.88
2022-09-18T03:39:50.189Z,2.70
2022-09-18T03:42:18.165Z,3.10
2022-09-18T03:44:47.213Z,2.95
2022-09-18T03:47:24.461Z,3.40
2022-09-18T03:49:53.540Z,2.70
2022-09-18T03:52:22.443Z,2.78
2022-09-18T03:54:57.662Z,2.80
2022-09-18T03:58:00.294Z,3.80
2022-09-18T04:00:48.586Z,2.67
2022-09-18T04:03:26.332Z,2.72
2022-09-18T04:06:23.969Z,2.80
2022-09-18T04:09:11.917Z,2.80
2022-09-18T04:11:46.477Z,2.80
2022-09-18T04:14:16.653Z,2.60
2022-09-18T04:19:14.106Z,3.03
2022-09-18T04:21:42.102Z,2.97
2022-09-18T04:24:10.452Z,3.13
2022-09-18T04:26:40.537Z,2.65
2022-09-18T04:29:08.700Z,2.70
2022-09-18T04:31:38.803Z,2.90
2022-09-18T04:34:11.879Z,3.13
2022-09-18T04:36:40.643Z,3.22
2022-09-18T04:39:09.597Z,3.00
2022-09-18T04:41:38.050Z,3.72
2022-09-18T04:44:06.839Z,2.72
2022-09-18T04:46:36.114Z,3.00
2022-09-18T04:49:04.682Z,3.10
2022-09-18T04:51:32.673Z,3.00
2022-09-18T04:54:01.594Z,2.80
2022-09-18T04:56:29.768Z,3.00
2022-09-18T04:59:00.015Z,2.75
2022-09-18T05:01:31.516Z,2.80
2022-09-18T05:04:01.009Z,2.53
2022-09-18T05:06:40.308Z,2.70
2022-09-18T05:09:09.069Z,2.65
2022-09-18T05:11:38.341Z,3.03
2022-09-18T05:14:06.451Z,2.63
2022-09-18T05:16:35.594Z,3.13
2022-09-18T05:19:26.766Z,2.78
2022-09-18T05:22:01.849Z,2.97
2022-09-18T05:26:54.305Z,2.97
2022-09-18T05:29:23.931Z,3.00
2022-09-18T05:31:56.149Z,2.80
2022-09-18T05:34:24.112Z,3.10
2022-09-18T05:36:52.071Z,2.90
2022-09-18T05:39:19.957Z,2.90
2022-09-18T05:41:51.187Z,2.78
2022-09-18T05:44:20.148Z,2.75
2022-09-18T05:46:49.668Z,2.67
2022-09-18T05:49:18.434Z,3.00
2022-09-18T05:51:46.663Z,3.00
2022-09-18T05:54:15.928Z,2.75
2022-09-18T05:56:48.734Z,2.65
2022-09-18T05:59:17.849Z,3.00
2022-09-18T06:01:48.471Z,2.50
2022-09-18T06:04:24.952Z,3.13
2022-09-18T06:07:01.792Z,2.60
2022-09-18T06:09:30.825Z,2.90
2022-09-18T06:11:58.767Z,2.80
2022-09-18T06:14:26.974Z,2.72
2022-09-18T06:16:55.677Z,3.00
2022-09-18T06:19:24.102Z,2.70
2022-09-18T06:21:53.285Z,2.88
2022-09-18T06:24:22.702Z,2.70
2022-09-18T06:27:07.495Z,2.65
2022-09-18T06:29:36.829Z,2.80
2022-09-18T06:32:10.714Z,2.58
2022-09-18T06:34:40.527Z,2.50
2022-09-18T06:37:12.369Z,2.55
2022-09-18T06:39:43.430Z,2.70
2022-09-18T06:42:19.012Z,3.17
2022-09-18T06:45:22.589Z,2.67
2022-09-18T06:47:55.436Z,4.15
2022-09-18T06:50:25.976Z,2.90
2022-09-18T06:52:53.785Z,2.55
2022-09-18T06:55:27.071Z,2.70
2022-09-18T06:57:55.873Z,2.40
2022-09-18T07:00:24.826Z,2.50
2022-09-18T07:03:03.805Z,3.03
2022-09-18T07:05:50.066Z,2.20
2022-09-18T07:08:35.078Z,2.25
2022-09-18T07:11:13.736Z,2.53
2022-09-18T07:13:42.511Z,2.83
2022-09-18T07:16:10.966Z,2.83
2022-09-18T07:18:38.874Z,2.50
2022-09-18T07:21:06.933Z,2.47
2022-09-18T07:23:39.116Z,2.60
2022-09-18T07:26:07.741Z,2.88
2022-09-18T07:28:36.198Z,2.70
2022-09-18T07:31:13.179Z,2.53
2022-09-18T07:33:41.000Z,2.50
2022-09-18T07:36:10.230Z,2.60
2022-09-18T07:38:38.249Z,2.65
2022-09-18T07:41:09.762Z,2.35
2022-09-18T07:43:39.955Z,2.90
2022-09-18T07:46:08.541Z,4.18
2022-09-18T07:48:39.145Z,2.78
2022-09-18T07:51:13.703Z,2.40
2022-09-18T07:53:44.300Z,2.55
2022-09-18T07:56:13.362Z,2.78
2022-09-18T07:58:42.146Z,2.45
2022-09-18T08:01:18.162Z,2.45
2022-09-18T08:03:50.242Z,2.50
2022-09-18T08:06:21.149Z,2.75
2022-09-18T08:09:11.094Z,2.45
2022-09-18T08:11:57.874Z,2.20
2022-09-18T08:14:49.878Z,1.90
2022-09-18T08:17:36.597Z,2.15
2022-09-18T08:20:30.509Z,2.20
2022-09-18T08:23:10.305Z,1.90
2022-09-18T08:25:42.191Z,2.10
2022-09-18T08:28:10.526Z,2.08
2022-09-18T08:30:47.054Z,2.03
2022-09-18T08:33:15.773Z,2.20
2022-09-18T08:35:43.621Z,2.08
2022-09-18T08:38:41.142Z,2.20
2022-09-18T08:41:30.414Z,2.00
2022-09-18T08:44:05.986Z,2.20
2022-09-18T08:46:42.624Z,1.95
2022-09-18T08:49:37.614Z,1.73
2022-09-18T08:52:21.217Z,1.90
2022-09-18T08:54:57.979Z,2.03
2022-09-18T08:57:41.948Z,2.10
2022-09-18T09:00:20.461Z,1.90
2022-09-18T09:03:45.701Z,2.20
2022-09-18T09:06:20.343Z,2.00
2022-09-18T09:09:05.662Z,2.00
2022-09-18T09:11:52.553Z,2.28
2022-09-18T09:14:57.819Z,2.20
2022-09-18T09:17:40.764Z,2.10
2022-09-18T09:20:30.545Z,2.10
2022-09-18T09:23:12.606Z,1.90
2022-09-18T09:25:46.599Z,1.88
2022-09-18T09:29:14.588Z,1.80
2022-09-18T09:31:58.328Z,2.17
2022-09-18T09:34:57.687Z,1.90
2022-09-18T09:37:40.607Z,2.10
2022-09-18T09:40:18.352Z,1.80
2022-09-18T09:42:55.872Z,1.83
2022-09-18T09:45:47.191Z,1.80
2022-09-18T09:49:15.721Z,2.05
2022-09-18T09:51:53.016Z,1.63
2022-09-18T09:54:21.780Z,1.60
2022-09-18T09:57:03.571Z,1.60
2022-09-18T09:59:44.525Z,1.60
2022-09-18T10:02:55.335Z,2.00
2022-09-18T10:05:59.533Z,2.03
2022-09-18T10:08:32.468Z,1.70
2022-09-18T10:11:04.286Z,1.60
2022-09-18T10:13:40.885Z,1.60
2022-09-18T10:16:23.917Z,1.88
2022-09-18T10:18:53.484Z,1.85
2022-09-18T10:21:27.204Z,1.80
2022-09-18T10:24:20.070Z,2.13
2022-09-18T10:26:58.636Z,1.80
2022-09-18T10:29:27.804Z,1.60
2022-09-18T10:32:01.377Z,1.40
2022-09-18T10:34:43.777Z,1.70
2022-09-18T10:37:40.919Z,1.58
2022-09-18T10:40:38.420Z,1.60
2022-09-18T10:43:15.860Z,1.80
2022-09-18T10:45:53.740Z,1.60
2022-09-18T10:48:28.345Z,1.58
2022-09-18T10:50:59.862Z,1.50
2022-09-18T10:53:40.121Z,1.40
2022-09-18T10:56:21.823Z,1.70
2022-09-18T10:58:53.572Z,1.60
2022-09-18T11:01:25.793Z,1.50
2022-09-18T11:04:04.876Z,1.50
2022-09-18T11:09:30.352Z,1.50
2022-09-18T11:11:59.176Z,1.80
2022-09-18T11:14:42.590Z,1.80
2022-09-18T11:17:26.891Z,1.50
2022-09-18T11:19:57.290Z,1.75
2022-09-18T11:22:43.717Z,1.77
2022-09-18T11:25:31.979Z,1.60
2022-09-18T11:28:28.018Z,1.38
2022-09-18T11:31:15.399Z,1.30
2022-09-18T11:33:54.572Z,1.30
2022-09-18T11:36:32.753Z,1.60
2022-09-18T11:39:12.647Z,1.40
2022-09-18T11:41:42.043Z,1.45
2022-09-18T11:44:38.212Z,1.30
2022-09-18T11:47:12.161Z,1.30
2022-09-18T11:49:49.225Z,1.40
2022-09-18T11:52:29.092Z,1.33
2022-09-18T11:55:34.086Z,1.50
2022-09-18T11:58:05.929Z,1.67
2022-09-18T12:01:44.775Z,1.65
2022-09-18T12:04:12.930Z,1.40
2022-09-18T12:06:51.109Z,1.60
2022-09-18T12:09:39.215Z,1.33
2022-09-18T12:12:21.606Z,1.73
2022-09-18T12:15:15.813Z,1.48
2022-09-18T12:18:17.790Z,1.30
2022-09-18T12:20:54.308Z,1.33
2022-09-18T12:23:24.861Z,1.40
2022-09-18T12:26:18.618Z,1.38
2022-09-18T12:29:16.905Z,1.60
2022-09-18T12:31:56.790Z,1.50
2022-09-18T12:35:06.827Z,1.60
2022-09-18T12:37:42.081Z,1.70
2022-09-18T12:40:36.309Z,1.58
2022-09-18T12:43:38.674Z,1.70
2022-09-18T12:46:17.771Z,1.90
2022-09-18T12:49:04.054Z,1.83
2022-09-18T12:51:41.278Z,1.58
2022-09-18T12:54:48.302Z,1.65
2022-09-18T12:57:45.369Z,1.60
2022-09-18T13:00:16.290Z,1.50
2022-09-18T13:03:25.282Z,2.05
2022-09-18T13:06:07.913Z,1.52
2022-09-18T13:08:55.441Z,1.70
2022-09-18T13:11:37.826Z,1.73
2022-09-18T13:14:16.185Z,1.65
2022-09-18T13:16:50.694Z,1.63
2022-09-18T13:19:57.749Z,1.50
2022-09-18T13:22:30.897Z,1.60
2022-09-18T13:25:01.230Z,2.13
2022-09-18T13:27:33.055Z,1.63
2022-09-18T13:30:15.252Z,1.60
2022-09-18T13:32:44.577Z,1.60
2022-09-18T13:35:12.878Z,1.70
2022-09-18T13:37:42.776Z,1.60
2022-09-18T13:40:33.724Z,1.70
2022-09-18T13:43:23.378Z,1.77
2022-09-18T13:45:51.753Z,1.50
2022-09-18T13:48:30.464Z,1.60
2022-09-18T13:51:09.572Z,1.63
2022-09-18T13:53:42.717Z,2.00
2022-09-18T13:56:17.224Z,1.83
2022-09-18T13:58:57.364Z,1.50
2022-09-18T14:01:43.535Z,1.55
2022-09-18T14:04:56.743Z,1.60
2022-09-18T14:07:24.748Z,1.70
2022-09-18T14:09:58.221Z,1.52
2022-09-18T14:12:33.330Z,1.50
2022-09-18T14:15:25.362Z,1.30
2022-09-18T14:18:30.978Z,1.75
2022-09-18T14:21:17.514Z,1.90
2022-09-18T14:23:48.986Z,1.40
2022-09-18T14:29:10.634Z,1.20
2022-09-18T14:31:47.050Z,1.40
2022-09-18T14:34:30.371Z,1.35
2022-09-18T14:37:18.152Z,1.50
2022-09-18T14:39:47.419Z,1.70
2022-09-18T14:42:32.481Z,1.50
2022-09-18T14:45:13.971Z,1.45
2022-09-18T14:47:48.036Z,1.83
2022-09-18T14:50:22.549Z,1.80
2022-09-18T14:52:51.482Z,1.63
2022-09-18T14:55:23.796Z,1.80
2022-09-18T14:57:57.440Z,1.80
2022-09-18T15:00:30.846Z,1.50
2022-09-18T15:03:03.609Z,1.58
2022-09-18T15:05:34.031Z,1.60
2022-09-18T15:08:07.295Z,1.40
2022-09-18T15:10:40.901Z,1.50
2022-09-18T15:13:15.867Z,1.50
2022-09-18T15:15:46.635Z,1.60
2022-09-18T15:18:20.413Z,1.60
2022-09-18T15:20:52.645Z,1.58
2022-09-18T15:23:33.790Z,1.52
2022-09-18T15:26:06.996Z,2.13
2022-09-18T15:28:38.223Z,1.63
2022-09-18T15:31:10.924Z,1.63
2022-09-18T15:33:43.193Z,1.50
2022-09-18T15:36:24.912Z,2.00
2022-09-18T15:38:54.088Z,1.60
2022-09-18T15:41:41.388Z,1.77
2022-09-18T15:44:34.729Z,1.80
2022-09-18T15:47:35.106Z,1.73
2022-09-18T15:50:34.932Z,2.33
2022-09-18T15:53:21.830Z,2.00
2022-09-18T15:55:59.749Z,1.90
2022-09-18T15:58:30.575Z,1.80
2022-09-18T16:01:01.073Z,1.90
2022-09-18T16:03:31.573Z,1.60
2022-09-18T16:06:05.334Z,1.92
2022-09-18T16:08:37.633Z,1.88
2022-09-18T16:11:28.086Z,1.90
2022-09-18T16:13:56.346Z,1.70
2022-09-18T16:16:26.512Z,1.80
2022-09-18T16:19:08.685Z,1.83
2022-09-18T16:21:42.525Z,1.80
2022-09-18T16:24:30.913Z,1.70
2022-09-18T16:27:08.159Z,1.85
2022-09-18T16:29:36.456Z,1.92
2022-09-18T16:32:12.581Z,1.88
2022-09-18T16:34:41.810Z,1.77
2022-09-18T16:37:14.749Z,2.13
2022-09-18T16:39:45.577Z,1.90
2022-09-18T16:42:18.514Z,1.90
2022-09-18T16:44:47.718Z,1.63
2022-09-18T16:47:16.479Z,2.00
2022-09-18T16:49:47.825Z,2.22
2022-09-18T16:52:16.401Z,1.90
2022-09-18T16:54:44.118Z,2.13
2022-09-18T16:57:20.228Z,1.73
2022-09-18T16:59:50.256Z,1.70
2022-09-18T17:02:25.400Z,2.03
2022-09-18T17:04:56.411Z,1.90
2022-09-18T17:07:25.020Z,2.08
2022-09-18T17:09:52.876Z,2.13
2022-09-18T17:12:20.688Z,1.80
2022-09-18T17:14:48.740Z,1.75
2022-09-18T17:17:16.584Z,2.00
2022-09-18T17:19:45.267Z,1.88
2022-09-18T17:22:13.763Z,1.77
2022-09-18T17:24:41.514Z,1.90
2022-09-18T17:27:12.169Z,1.95
2022-09-18T17:29:40.633Z,1.90
2022-09-18T17:32:08.402Z,1.92
2022-09-18T17:34:37.132Z,2.33
2022-09-18T17:37:06.622Z,1.88
2022-09-18T17:39:34.783Z,2.00
2022-09-18T17:42:02.985Z,1.88
2022-09-18T17:44:34.501Z,2.08
2022-09-18T17:47:03.190Z,2.20
2022-09-18T17:49:34.835Z,2.72
2022-09-18T17:52:04.064Z,2.58
2022-09-18T17:54:36.220Z,2.50
2022-09-18T17:57:11.647Z,2.30
2022-09-18T17:59:42.081Z,2.40
2022-09-18T18:02:12.109Z,2.45
2022-09-18T18:04:40.664Z,2.95
2022-09-18T18:07:09.188Z,3.25
2022-09-18T18:09:37.601Z,4.15
2022-09-18T18:12:08.847Z,3.28
2022-09-18T18:14:37.050Z,4.25
2022-09-18T18:17:05.605Z,3.70
2022-09-18T18:19:34.305Z,2.55
2022-09-18T18:22:02.674Z,2.67
2022-09-18T18:24:31.342Z,2.50
2022-09-18T18:26:59.234Z,2.42
2022-09-18T18:29:27.323Z,2.20
2022-09-18T18:31:55.539Z,2.10
2022-09-18T18:34:25.339Z,2.47
2022-09-18T18:36:53.859Z,2.22
2022-09-18T18:39:22.001Z,2.10
2022-09-18T18:41:50.426Z,2.30
2022-09-18T18:44:20.373Z,2.22
2022-09-18T18:46:50.179Z,2.30
2022-09-18T18:49:19.117Z,2.20
2022-09-18T18:51:48.624Z,2.05
2022-09-18T18:54:20.074Z,2.20
2022-09-18T18:56:48.902Z,2.30
2022-09-18T18:59:19.804Z,2.20
2022-09-18T19:01:48.389Z,2.47
2022-09-18T19:04:21.682Z,2.72
2022-09-18T19:06:50.282Z,2.70
2022-09-18T19:09:22.089Z,2.65
2022-09-18T19:14:21.933Z,2.60
2022-09-18T19:19:20.624Z,2.58
2022-09-18T19:21:49.133Z,2.70
2022-09-18T19:24:18.663Z,2.72
2022-09-18T19:26:48.580Z,2.87
2022-09-18T19:29:19.140Z,2.88
2022-09-18T19:31:47.770Z,3.05
2022-09-18T19:34:18.595Z,3.03
2022-09-18T19:36:50.410Z,2.70
2022-09-18T19:39:24.765Z,2.40
2022-09-18T19:42:14.941Z,2.90
2022-09-18T19:44:49.005Z,3.08
2022-09-18T19:47:25.610Z,3.33
2022-09-18T19:49:55.388Z,3.38
2022-09-18T19:52:26.093Z,3.58
2022-09-18T19:54:56.119Z,3.78
2022-09-18T19:57:26.654Z,5.68
2022-09-18T19:59:57.096Z,5.70
2022-09-18T20:02:27.401Z,5.43
2022-09-18T20:04:56.692Z,7.30
2022-09-18T20:07:25.792Z,7.15
2022-09-18T20:09:54.813Z,6.10
2022-09-18T20:12:23.139Z,6.05
2022-09-18T20:14:54.306Z,5.53
2022-09-18T20:19:52.201Z,3.90
2022-09-18T20:22:21.202Z,3.90
2022-09-18T20:24:55.007Z,2.83
2022-09-18T20:27:24.652Z,3.30
2022-09-18T20:29:53.182Z,3.63
2022-09-18T20:32:20.919Z,3.10
2022-09-18T20:34:49.019Z,3.20
2022-09-18T20:37:17.433Z,3.28
2022-09-18T20:39:45.235Z,3.00
2022-09-18T20:42:13.112Z,2.90
2022-09-18T20:44:41.064Z,3.08
2022-09-18T20:47:08.914Z,3.38
2022-09-18T20:49:39.785Z,3.50
2022-09-18T20:52:11.291Z,2.92
2022-09-18T20:54:42.376Z,3.20
2022-09-18T20:57:14.566Z,3.30
2022-09-18T21:02:10.615Z,4.03
2022-09-18T21:04:39.173Z,3.33
2022-09-18T21:07:06.920Z,3.58
2022-09-18T21:09:35.083Z,3.10
2022-09-18T21:12:06.445Z,3.40
2022-09-18T21:14:34.320Z,3.22
2022-09-18T21:17:02.019Z,3.30
2022-09-18T21:19:30.079Z,3.60
2022-09-18T21:21:57.795Z,3.28
2022-09-18T21:24:26.118Z,3.45
2022-09-18T21:26:54.635Z,3.20
2022-09-18T21:29:26.105Z,3.03
2022-09-18T21:31:57.253Z,3.35
2022-09-18T21:34:31.360Z,3.92
2022-09-18T21:37:12.081Z,3.28
2022-09-18T21:39:42.511Z,3.53
2022-09-18T21:42:11.001Z,3.50
2022-09-18T21:44:39.243Z,3.20
2022-09-18T21:47:08.706Z,3.15
2022-09-18T21:49:36.674Z,2.80
2022-09-18T21:52:07.213Z,2.80
2022-09-18T21:54:36.504Z,3.05
2022-09-18T21:57:05.010Z,2.92
2022-09-18T21:59:36.737Z,3.10
2022-09-18T22:04:35.037Z,2.88
2022-09-18T22:07:02.978Z,2.95
2022-09-18T22:09:34.587Z,2.70
2022-09-18T22:12:02.683Z,3.00
2022-09-18T22:14:32.512Z,2.85
2022-09-18T22:17:04.261Z,3.20
2022-09-18T22:19:40.539Z,3.40
2022-09-18T22:22:12.216Z,3.63
2022-09-18T22:24:40.561Z,4.00
2022-09-18T22:27:08.903Z,3.92
2022-09-18T22:29:39.508Z,3.85
2022-09-18T22:32:07.346Z,4.10
2022-09-18T22:34:36.087Z,4.43
2022-09-18T22:37:05.397Z,5.00
2022-09-18T22:39:33.288Z,4.72
2022-09-18T22:42:01.934Z,4.60
2022-09-18T22:44:31.012Z,4.20
2022-09-18T22:49:30.811Z,4.00
2022-09-18T22:51:58.989Z,3.80
2022-09-18T22:54:27.679Z,3.63
2022-09-18T22:56:56.929Z,3.40
2022-09-18T22:59:27.215Z,3.35
2022-09-18T23:02:06.638Z,3.65
2022-09-18T23:04:36.274Z,3.20
2022-09-18T23:07:04.777Z,3.42
2022-09-18T23:09:33.290Z,3.10
2022-09-18T23:12:03.720Z,3.05
2022-09-18T23:14:31.989Z,3.00
2022-09-18T23:17:00.966Z,3.20
2022-09-18T23:19:32.307Z,3.30
2022-09-18T23:22:00.453Z,3.45
2022-09-18T23:24:28.793Z,3.55
2022-09-18T23:26:58.783Z,3.70
2022-09-18T23:29:28.560Z,3.80
2022-09-18T23:32:00.094Z,4.20
2022-09-18T23:34:31.709Z,3.72
2022-09-18T23:37:00.801Z,3.75
2022-09-18T23:39:34.578Z,4.18
2022-09-18T23:42:05.668Z,4.40
2022-09-18T23:44:34.550Z,4.28
2022-09-18T23:47:05.255Z,4.28
2022-09-18T23:49:34.527Z,3.80
2022-09-18T23:52:02.837Z,4.40
2022-09-18T23:54:32.188Z,4.20
2022-09-18T23:57:00.840Z,4.38
2022-09-18T23:59:29.678Z,4.43
